sensor_id;sensor_type;location;lat;lon;timestamp;P1;durP1;ratioP1;P2;durP2;ratioP2
79403;SDS011;68858;48.642;9.142;2023-08-07T00:02:24;4.37;;;1.83;;
79403;SDS011;68858;48.642;9.142;2023-08-07T00:04:49;4.83;;;1.73;;
79403;SDS011;68858;48.642;9.142;2023-08-07T00:07:15;3.27;;;1.60;;
79403;SDS011;68858;48.642;9.142;2023-08-07T00:09:41;2.50;;;1.80;;
79403;SDS011;68858;48.642;9.142;2023-08-07T00:12:06;4.03;;;1.90;;
79403;SDS011;68858;48.642;9.142;2023-08-07T00:14:32;3.07;;;1.70;;
79403;SDS011;68858;48.642;9.142;2023-08-07T00:16:57;2.80;;;1.80;;
79403;SDS011;68858;48.642;9.142;2023-08-07T00:19:23;3.13;;;1.67;;
79403;SDS011;68858;48.642;9.142;2023-08-07T00:21:48;3.23;;;1.77;;
79403;SDS011;68858;48.642;9.142;2023-08-07T00:24:13;2.67;;;1.87;;
79403;SDS011;68858;48.642;9.142;2023-08-07T00:26:38;2.73;;;1.80;;
79403;SDS011;68858;48.642;9.142;2023-08-07T00:29:04;2.87;;;1.80;;
79403;SDS011;68858;48.642;9.142;2023-08-07T00:31:29;2.37;;;1.60;;
79403;SDS011;68858;48.642;9.142;2023-08-07T00:33:56;3.63;;;2.00;;
79403;SDS011;68858;48.642;9.142;2023-08-07T00:36:22;2.20;;;1.63;;
79403;SDS011;68858;48.642;9.142;2023-08-07T00:38:48;5.07;;;1.70;;
79403;SDS011;68858;48.642;9.142;2023-08-07T00:41:13;3.00;;;1.50;;
79403;SDS011;68858;48.642;9.142;2023-08-07T00:43:38;3.60;;;1.97;;
79403;SDS011;68858;48.642;9.142;2023-08-07T00:46:04;3.50;;;1.70;;
79403;SDS011;68858;48.642;9.142;2023-08-07T00:48:29;2.83;;;1.53;;
79403;SDS011;68858;48.642;9.142;2023-08-07T00:50:56;2.17;;;1.50;;
79403;SDS011;68858;48.642;9.142;2023-08-07T00:53:21;5.73;;;1.70;;
79403;SDS011;68858;48.642;9.142;2023-08-07T00:55:47;4.90;;;1.87;;
79403;SDS011;68858;48.642;9.142;2023-08-07T00:58:13;3.10;;;1.90;;
79403;SDS011;68858;48.642;9.142;2023-08-07T01:00:38;2.30;;;1.73;;
79403;SDS011;68858;48.642;9.142;2023-08-07T01:03:06;2.97;;;1.87;;
79403;SDS011;68858;48.642;9.142;2023-08-07T01:05:32;2.83;;;1.80;;
79403;SDS011;68858;48.642;9.142;2023-08-07T01:07:57;4.40;;;1.90;;
79403;SDS011;68858;48.642;9.142;2023-08-07T01:10:35;2.07;;;1.60;;
79403;SDS011;68858;48.642;9.142;2023-08-07T01:13:27;2.20;;;1.80;;
79403;SDS011;68858;48.642;9.142;2023-08-07T01:15:59;3.43;;;1.70;;
79403;SDS011;68858;48.642;9.142;2023-08-07T01:18:27;2.43;;;1.47;;
79403;SDS011;68858;48.642;9.142;2023-08-07T01:20:53;2.73;;;1.50;;
79403;SDS011;68858;48.642;9.142;2023-08-07T01:23:19;2.80;;;1.60;;
79403;SDS011;68858;48.642;9.142;2023-08-07T01:25:44;1.73;;;1.50;;
79403;SDS011;68858;48.642;9.142;2023-08-07T01:28:12;4.07;;;1.90;;
79403;SDS011;68858;48.642;9.142;2023-08-07T01:30:42;2.60;;;1.60;;
79403;SDS011;68858;48.642;9.142;2023-08-07T01:33:24;2.60;;;1.53;;
79403;SDS011;68858;48.642;9.142;2023-08-07T01:35:55;3.27;;;2.10;;
79403;SDS011;68858;48.642;9.142;2023-08-07T01:38:24;2.57;;;1.70;;
79403;SDS011;68858;48.642;9.142;2023-08-07T01:40:49;1.77;;;1.60;;
79403;SDS011;68858;48.642;9.142;2023-08-07T01:43:15;2.37;;;1.43;;
79403;SDS011;68858;48.642;9.142;2023-08-07T01:45:41;3.27;;;1.90;;
79403;SDS011;68858;48.642;9.142;2023-08-07T01:48:07;4.27;;;1.80;;
79403;SDS011;68858;48.642;9.142;2023-08-07T01:50:32;4.23;;;1.73;;
79403;SDS011;68858;48.642;9.142;2023-08-07T01:52:57;2.27;;;1.60;;
79403;SDS011;68858;48.642;9.142;2023-08-07T01:55:23;3.37;;;1.77;;
79403;SDS011;68858;48.642;9.142;2023-08-07T01:57:49;2.50;;;1.73;;
79403;SDS011;68858;48.642;9.142;2023-08-07T02:00:14;1.80;;;1.30;;
79403;SDS011;68858;48.642;9.142;2023-08-07T02:02:39;2.43;;;1.80;;
79403;SDS011;68858;48.642;9.142;2023-08-07T02:05:05;2.57;;;1.93;;
79403;SDS011;68858;48.642;9.142;2023-08-07T02:07:30;3.83;;;1.83;;
79403;SDS011;68858;48.642;9.142;2023-08-07T02:09:56;3.37;;;1.50;;
79403;SDS011;68858;48.642;9.142;2023-08-07T02:12:22;2.37;;;1.70;;
79403;SDS011;68858;48.642;9.142;2023-08-07T02:14:47;2.40;;;1.63;;
79403;SDS011;68858;48.642;9.142;2023-08-07T02:17:13;2.03;;;1.57;;
79403;SDS011;68858;48.642;9.142;2023-08-07T02:19:38;2.13;;;1.60;;
79403;SDS011;68858;48.642;9.142;2023-08-07T02:22:03;1.63;;;1.53;;
79403;SDS011;68858;48.642;9.142;2023-08-07T02:24:29;2.03;;;1.50;;
79403;SDS011;68858;48.642;9.142;2023-08-07T02:26:54;2.17;;;1.67;;
79403;SDS011;68858;48.642;9.142;2023-08-07T02:29:19;3.00;;;1.60;;
79403;SDS011;68858;48.642;9.142;2023-08-07T02:31:45;3.27;;;1.73;;
79403;SDS011;68858;48.642;9.142;2023-08-07T02:34:10;4.23;;;1.40;;
79403;SDS011;68858;48.642;9.142;2023-08-07T02:36:35;3.90;;;1.90;;
79403;SDS011;68858;48.642;9.142;2023-08-07T02:39:01;2.83;;;1.90;;
79403;SDS011;68858;48.642;9.142;2023-08-07T02:41:26;3.40;;;1.70;;
79403;SDS011;68858;48.642;9.142;2023-08-07T02:43:51;2.73;;;1.50;;
79403;SDS011;68858;48.642;9.142;2023-08-07T02:46:17;2.70;;;1.50;;
79403;SDS011;68858;48.642;9.142;2023-08-07T02:48:45;4.23;;;1.80;;
79403;SDS011;68858;48.642;9.142;2023-08-07T02:51:10;4.47;;;1.83;;
79403;SDS011;68858;48.642;9.142;2023-08-07T02:53:36;2.83;;;1.80;;
79403;SDS011;68858;48.642;9.142;2023-08-07T02:56:01;2.00;;;1.80;;
79403;SDS011;68858;48.642;9.142;2023-08-07T02:58:26;2.53;;;1.90;;
79403;SDS011;68858;48.642;9.142;2023-08-07T03:00:52;2.60;;;1.77;;
79403;SDS011;68858;48.642;9.142;2023-08-07T03:03:17;4.50;;;1.70;;
79403;SDS011;68858;48.642;9.142;2023-08-07T03:05:51;3.70;;;2.13;;
79403;SDS011;68858;48.642;9.142;2023-08-07T03:08:17;2.20;;;1.80;;
79403;SDS011;68858;48.642;9.142;2023-08-07T03:10:49;3.27;;;2.00;;
79403;SDS011;68858;48.642;9.142;2023-08-07T03:13:16;4.47;;;1.90;;
79403;SDS011;68858;48.642;9.142;2023-08-07T03:15:42;2.90;;;1.93;;
79403;SDS011;68858;48.642;9.142;2023-08-07T03:18:07;3.77;;;1.93;;
79403;SDS011;68858;48.642;9.142;2023-08-07T03:20:32;4.40;;;2.17;;
79403;SDS011;68858;48.642;9.142;2023-08-07T03:22:57;3.90;;;1.80;;
79403;SDS011;68858;48.642;9.142;2023-08-07T03:25:23;2.73;;;1.80;;
79403;SDS011;68858;48.642;9.142;2023-08-07T03:27:48;3.30;;;2.00;;
79403;SDS011;68858;48.642;9.142;2023-08-07T03:30:14;3.70;;;2.13;;
79403;SDS011;68858;48.642;9.142;2023-08-07T03:32:39;3.83;;;1.73;;
79403;SDS011;68858;48.642;9.142;2023-08-07T03:35:06;2.63;;;1.87;;
79403;SDS011;68858;48.642;9.142;2023-08-07T03:37:32;3.80;;;2.00;;
79403;SDS011;68858;48.642;9.142;2023-08-07T03:39:57;2.93;;;1.90;;
79403;SDS011;68858;48.642;9.142;2023-08-07T03:42:23;2.67;;;1.80;;
79403;SDS011;68858;48.642;9.142;2023-08-07T03:44:48;3.17;;;2.03;;
79403;SDS011;68858;48.642;9.142;2023-08-07T03:47:13;4.10;;;1.70;;
79403;SDS011;68858;48.642;9.142;2023-08-07T03:49:39;3.83;;;1.90;;
79403;SDS011;68858;48.642;9.142;2023-08-07T03:52:04;3.20;;;1.83;;
79403;SDS011;68858;48.642;9.142;2023-08-07T03:54:30;3.70;;;1.90;;
79403;SDS011;68858;48.642;9.142;2023-08-07T03:56:55;3.87;;;2.00;;
79403;SDS011;68858;48.642;9.142;2023-08-07T03:59:20;4.80;;;1.90;;
79403;SDS011;68858;48.642;9.142;2023-08-07T04:01:46;4.30;;;1.70;;
79403;SDS011;68858;48.642;9.142;2023-08-07T04:04:11;5.20;;;2.27;;
79403;SDS011;68858;48.642;9.142;2023-08-07T04:06:37;3.97;;;2.17;;
79403;SDS011;68858;48.642;9.142;2023-08-07T04:09:02;4.77;;;2.33;;
79403;SDS011;68858;48.642;9.142;2023-08-07T04:11:28;4.90;;;2.00;;
79403;SDS011;68858;48.642;9.142;2023-08-07T04:13:54;3.97;;;1.97;;
79403;SDS011;68858;48.642;9.142;2023-08-07T04:16:19;5.10;;;2.17;;
79403;SDS011;68858;48.642;9.142;2023-08-07T04:18:45;5.10;;;2.07;;
79403;SDS011;68858;48.642;9.142;2023-08-07T04:21:10;4.13;;;2.17;;
79403;SDS011;68858;48.642;9.142;2023-08-07T04:23:36;3.97;;;2.13;;
79403;SDS011;68858;48.642;9.142;2023-08-07T04:26:02;4.63;;;2.07;;
79403;SDS011;68858;48.642;9.142;2023-08-07T04:28:28;3.57;;;1.90;;
79403;SDS011;68858;48.642;9.142;2023-08-07T04:30:53;5.07;;;2.00;;
79403;SDS011;68858;48.642;9.142;2023-08-07T04:33:19;2.83;;;2.23;;
79403;SDS011;68858;48.642;9.142;2023-08-07T04:35:45;4.50;;;2.37;;
79403;SDS011;68858;48.642;9.142;2023-08-07T04:38:11;6.07;;;2.20;;
79403;SDS011;68858;48.642;9.142;2023-08-07T04:40:37;4.07;;;1.90;;
79403;SDS011;68858;48.642;9.142;2023-08-07T04:43:02;4.13;;;2.07;;
79403;SDS011;68858;48.642;9.142;2023-08-07T04:45:28;4.23;;;1.77;;
79403;SDS011;68858;48.642;9.142;2023-08-07T04:47:53;2.70;;;1.83;;
79403;SDS011;68858;48.642;9.142;2023-08-07T04:50:19;4.83;;;2.13;;
79403;SDS011;68858;48.642;9.142;2023-08-07T04:52:44;4.00;;;2.17;;
79403;SDS011;68858;48.642;9.142;2023-08-07T04:55:09;2.27;;;1.80;;
79403;SDS011;68858;48.642;9.142;2023-08-07T04:57:35;3.13;;;2.10;;
79403;SDS011;68858;48.642;9.142;2023-08-07T05:00:00;4.77;;;1.80;;
79403;SDS011;68858;48.642;9.142;2023-08-07T05:02:25;3.03;;;1.87;;
79403;SDS011;68858;48.642;9.142;2023-08-07T05:04:51;4.87;;;2.23;;
79403;SDS011;68858;48.642;9.142;2023-08-07T05:07:16;4.07;;;2.10;;
79403;SDS011;68858;48.642;9.142;2023-08-07T05:09:41;3.47;;;2.27;;
79403;SDS011;68858;48.642;9.142;2023-08-07T05:12:07;3.97;;;2.37;;
79403;SDS011;68858;48.642;9.142;2023-08-07T05:14:33;3.87;;;2.10;;
79403;SDS011;68858;48.642;9.142;2023-08-07T05:16:58;3.83;;;2.13;;
79403;SDS011;68858;48.642;9.142;2023-08-07T05:19:24;2.77;;;2.00;;
79403;SDS011;68858;48.642;9.142;2023-08-07T05:21:50;3.57;;;2.03;;
79403;SDS011;68858;48.642;9.142;2023-08-07T05:24:16;2.40;;;1.90;;
79403;SDS011;68858;48.642;9.142;2023-08-07T05:26:44;5.00;;;2.20;;
79403;SDS011;68858;48.642;9.142;2023-08-07T05:29:09;2.67;;;1.90;;
79403;SDS011;68858;48.642;9.142;2023-08-07T05:31:35;4.00;;;2.17;;
79403;SDS011;68858;48.642;9.142;2023-08-07T05:34:01;3.93;;;1.87;;
79403;SDS011;68858;48.642;9.142;2023-08-07T05:36:26;2.53;;;2.00;;
79403;SDS011;68858;48.642;9.142;2023-08-07T05:38:52;1.90;;;1.50;;
79403;SDS011;68858;48.642;9.142;2023-08-07T05:41:17;3.23;;;2.00;;
79403;SDS011;68858;48.642;9.142;2023-08-07T05:43:42;4.60;;;2.00;;
79403;SDS011;68858;48.642;9.142;2023-08-07T05:46:08;5.03;;;2.00;;
79403;SDS011;68858;48.642;9.142;2023-08-07T05:48:33;2.50;;;1.70;;
79403;SDS011;68858;48.642;9.142;2023-08-07T05:50:58;2.37;;;1.80;;
79403;SDS011;68858;48.642;9.142;2023-08-07T05:53:24;4.07;;;2.00;;
79403;SDS011;68858;48.642;9.142;2023-08-07T05:55:49;2.63;;;1.70;;
79403;SDS011;68858;48.642;9.142;2023-08-07T05:58:15;4.23;;;1.70;;
79403;SDS011;68858;48.642;9.142;2023-08-07T06:00:40;3.23;;;2.00;;
79403;SDS011;68858;48.642;9.142;2023-08-07T06:03:06;5.50;;;2.30;;
79403;SDS011;68858;48.642;9.142;2023-08-07T06:05:31;4.10;;;2.03;;
79403;SDS011;68858;48.642;9.142;2023-08-07T06:07:57;2.30;;;1.80;;
79403;SDS011;68858;48.642;9.142;2023-08-07T06:10:22;2.40;;;1.90;;
79403;SDS011;68858;48.642;9.142;2023-08-07T06:12:48;2.97;;;1.70;;
79403;SDS011;68858;48.642;9.142;2023-08-07T06:15:13;4.43;;;2.00;;
79403;SDS011;68858;48.642;9.142;2023-08-07T06:17:38;4.67;;;1.97;;
79403;SDS011;68858;48.642;9.142;2023-08-07T06:20:05;4.80;;;1.90;;
79403;SDS011;68858;48.642;9.142;2023-08-07T06:22:34;3.10;;;1.60;;
79403;SDS011;68858;48.642;9.142;2023-08-07T06:24:59;3.13;;;2.00;;
79403;SDS011;68858;48.642;9.142;2023-08-07T06:27:24;6.07;;;2.00;;
79403;SDS011;68858;48.642;9.142;2023-08-07T06:29:50;2.40;;;1.83;;
79403;SDS011;68858;48.642;9.142;2023-08-07T06:32:15;3.03;;;1.87;;
79403;SDS011;68858;48.642;9.142;2023-08-07T06:34:43;3.33;;;1.63;;
79403;SDS011;68858;48.642;9.142;2023-08-07T06:37:08;4.03;;;1.90;;
79403;SDS011;68858;48.642;9.142;2023-08-07T06:39:33;3.20;;;1.70;;
79403;SDS011;68858;48.642;9.142;2023-08-07T06:41:59;3.57;;;2.67;;
79403;SDS011;68858;48.642;9.142;2023-08-07T06:44:25;4.07;;;2.83;;
79403;SDS011;68858;48.642;9.142;2023-08-07T06:46:51;2.00;;;1.73;;
79403;SDS011;68858;48.642;9.142;2023-08-07T06:49:16;2.67;;;1.77;;
79403;SDS011;68858;48.642;9.142;2023-08-07T06:51:41;3.03;;;1.73;;
79403;SDS011;68858;48.642;9.142;2023-08-07T06:54:07;3.17;;;1.90;;
79403;SDS011;68858;48.642;9.142;2023-08-07T06:56:32;2.20;;;1.70;;
79403;SDS011;68858;48.642;9.142;2023-08-07T06:58:58;4.40;;;1.90;;
79403;SDS011;68858;48.642;9.142;2023-08-07T07:01:23;3.53;;;1.80;;
79403;SDS011;68858;48.642;9.142;2023-08-07T07:03:48;3.70;;;1.77;;
79403;SDS011;68858;48.642;9.142;2023-08-07T07:06:17;3.23;;;1.90;;
79403;SDS011;68858;48.642;9.142;2023-08-07T07:08:42;3.37;;;1.97;;
79403;SDS011;68858;48.642;9.142;2023-08-07T07:11:08;5.40;;;1.90;;
79403;SDS011;68858;48.642;9.142;2023-08-07T07:13:33;1.60;;;1.50;;
79403;SDS011;68858;48.642;9.142;2023-08-07T07:15:59;3.07;;;1.80;;
79403;SDS011;68858;48.642;9.142;2023-08-07T07:18:24;3.07;;;2.00;;
79403;SDS011;68858;48.642;9.142;2023-08-07T07:20:57;2.93;;;1.80;;
79403;SDS011;68858;48.642;9.142;2023-08-07T07:23:23;2.77;;;2.00;;
79403;SDS011;68858;48.642;9.142;2023-08-07T07:25:48;3.23;;;2.20;;
79403;SDS011;68858;48.642;9.142;2023-08-07T07:28:14;2.60;;;2.10;;
79403;SDS011;68858;48.642;9.142;2023-08-07T07:30:39;1.80;;;1.60;;
79403;SDS011;68858;48.642;9.142;2023-08-07T07:33:04;2.30;;;1.73;;
79403;SDS011;68858;48.642;9.142;2023-08-07T07:35:30;2.00;;;1.67;;
79403;SDS011;68858;48.642;9.142;2023-08-07T07:37:55;4.00;;;1.77;;
79403;SDS011;68858;48.642;9.142;2023-08-07T07:40:21;2.93;;;1.80;;
79403;SDS011;68858;48.642;9.142;2023-08-07T07:42:46;2.40;;;2.00;;
79403;SDS011;68858;48.642;9.142;2023-08-07T07:45:11;2.77;;;1.77;;
79403;SDS011;68858;48.642;9.142;2023-08-07T07:47:36;2.40;;;1.80;;
79403;SDS011;68858;48.642;9.142;2023-08-07T07:50:06;3.83;;;1.83;;
79403;SDS011;68858;48.642;9.142;2023-08-07T07:52:33;1.87;;;1.37;;
79403;SDS011;68858;48.642;9.142;2023-08-07T07:54:58;2.43;;;1.37;;
79403;SDS011;68858;48.642;9.142;2023-08-07T07:57:24;2.93;;;1.60;;
79403;SDS011;68858;48.642;9.142;2023-08-07T07:59:49;1.90;;;1.40;;
79403;SDS011;68858;48.642;9.142;2023-08-07T08:02:15;2.40;;;1.43;;
79403;SDS011;68858;48.642;9.142;2023-08-07T08:04:41;1.73;;;1.57;;
79403;SDS011;68858;48.642;9.142;2023-08-07T08:07:06;2.73;;;1.90;;
79403;SDS011;68858;48.642;9.142;2023-08-07T08:09:31;2.80;;;1.67;;
79403;SDS011;68858;48.642;9.142;2023-08-07T08:11:57;2.10;;;1.60;;
79403;SDS011;68858;48.642;9.142;2023-08-07T08:14:22;1.70;;;1.53;;
79403;SDS011;68858;48.642;9.142;2023-08-07T08:16:47;2.00;;;1.60;;
79403;SDS011;68858;48.642;9.142;2023-08-07T08:19:12;1.67;;;1.43;;
79403;SDS011;68858;48.642;9.142;2023-08-07T08:21:38;2.93;;;1.50;;
79403;SDS011;68858;48.642;9.142;2023-08-07T08:24:04;2.00;;;1.37;;
79403;SDS011;68858;48.642;9.142;2023-08-07T08:26:30;1.40;;;1.30;;
79403;SDS011;68858;48.642;9.142;2023-08-07T08:28:56;2.00;;;1.37;;
79403;SDS011;68858;48.642;9.142;2023-08-07T08:31:21;2.27;;;1.30;;
79403;SDS011;68858;48.642;9.142;2023-08-07T08:33:48;2.17;;;1.30;;
79403;SDS011;68858;48.642;9.142;2023-08-07T08:36:14;1.30;;;1.20;;
79403;SDS011;68858;48.642;9.142;2023-08-07T08:38:39;1.70;;;1.30;;
79403;SDS011;68858;48.642;9.142;2023-08-07T08:41:04;1.10;;;1.00;;
79403;SDS011;68858;48.642;9.142;2023-08-07T08:43:34;2.97;;;1.50;;
79403;SDS011;68858;48.642;9.142;2023-08-07T08:46:01;2.00;;;1.23;;
79403;SDS011;68858;48.642;9.142;2023-08-07T08:48:26;1.37;;;1.27;;
79403;SDS011;68858;48.642;9.142;2023-08-07T08:50:53;2.40;;;1.33;;
79403;SDS011;68858;48.642;9.142;2023-08-07T08:53:19;1.30;;;1.20;;
79403;SDS011;68858;48.642;9.142;2023-08-07T08:55:45;2.90;;;1.03;;
79403;SDS011;68858;48.642;9.142;2023-08-07T08:58:13;3.10;;;1.50;;
79403;SDS011;68858;48.642;9.142;2023-08-07T09:00:39;1.77;;;1.10;;
79403;SDS011;68858;48.642;9.142;2023-08-07T09:03:05;1.67;;;1.20;;
79403;SDS011;68858;48.642;9.142;2023-08-07T09:05:30;1.60;;;1.43;;
79403;SDS011;68858;48.642;9.142;2023-08-07T09:07:56;1.27;;;1.17;;
79403;SDS011;68858;48.642;9.142;2023-08-07T09:10:21;1.73;;;1.33;;
79403;SDS011;68858;48.642;9.142;2023-08-07T09:13:00;2.30;;;1.17;;
79403;SDS011;68858;48.642;9.142;2023-08-07T09:15:29;1.77;;;1.13;;
79403;SDS011;68858;48.642;9.142;2023-08-07T09:17:55;1.70;;;1.20;;
79403;SDS011;68858;48.642;9.142;2023-08-07T09:20:20;2.00;;;1.30;;
79403;SDS011;68858;48.642;9.142;2023-08-07T09:22:47;1.57;;;1.27;;
79403;SDS011;68858;48.642;9.142;2023-08-07T09:25:13;2.10;;;1.30;;
79403;SDS011;68858;48.642;9.142;2023-08-07T09:27:39;1.33;;;1.20;;
79403;SDS011;68858;48.642;9.142;2023-08-07T09:30:05;1.30;;;1.20;;
79403;SDS011;68858;48.642;9.142;2023-08-07T09:32:33;2.93;;;1.30;;
79403;SDS011;68858;48.642;9.142;2023-08-07T09:34:58;1.83;;;1.10;;
79403;SDS011;68858;48.642;9.142;2023-08-07T09:37:24;1.20;;;1.10;;
79403;SDS011;68858;48.642;9.142;2023-08-07T09:39:49;1.17;;;1.00;;
79403;SDS011;68858;48.642;9.142;2023-08-07T09:42:15;1.47;;;1.10;;
79403;SDS011;68858;48.642;9.142;2023-08-07T09:44:41;1.33;;;1.10;;
79403;SDS011;68858;48.642;9.142;2023-08-07T09:47:14;1.10;;;1.00;;
79403;SDS011;68858;48.642;9.142;2023-08-07T09:49:41;1.00;;;0.90;;
79403;SDS011;68858;48.642;9.142;2023-08-07T09:52:08;2.67;;;1.10;;
79403;SDS011;68858;48.642;9.142;2023-08-07T09:54:34;1.77;;;1.20;;
79403;SDS011;68858;48.642;9.142;2023-08-07T09:57:01;2.20;;;1.27;;
79403;SDS011;68858;48.642;9.142;2023-08-07T09:59:27;2.07;;;1.17;;
79403;SDS011;68858;48.642;9.142;2023-08-07T10:01:53;1.73;;;1.20;;
79403;SDS011;68858;48.642;9.142;2023-08-07T10:04:20;1.83;;;1.20;;
79403;SDS011;68858;48.642;9.142;2023-08-07T10:06:48;2.83;;;1.50;;
79403;SDS011;68858;48.642;9.142;2023-08-07T10:09:13;3.50;;;1.30;;
79403;SDS011;68858;48.642;9.142;2023-08-07T10:11:39;1.80;;;1.30;;
79403;SDS011;68858;48.642;9.142;2023-08-07T10:14:06;2.20;;;1.20;;
79403;SDS011;68858;48.642;9.142;2023-08-07T10:16:31;1.33;;;1.20;;
79403;SDS011;68858;48.642;9.142;2023-08-07T10:18:57;1.30;;;1.20;;
79403;SDS011;68858;48.642;9.142;2023-08-07T10:21:23;2.20;;;1.40;;
79403;SDS011;68858;48.642;9.142;2023-08-07T10:23:50;2.27;;;1.20;;
79403;SDS011;68858;48.642;9.142;2023-08-07T10:26:17;1.23;;;1.00;;
79403;SDS011;68858;48.642;9.142;2023-08-07T10:28:44;2.43;;;1.30;;
79403;SDS011;68858;48.642;9.142;2023-08-07T10:31:09;1.97;;;1.30;;
79403;SDS011;68858;48.642;9.142;2023-08-07T10:33:36;1.50;;;1.20;;
79403;SDS011;68858;48.642;9.142;2023-08-07T10:36:02;1.37;;;1.13;;
79403;SDS011;68858;48.642;9.142;2023-08-07T10:38:33;2.27;;;1.20;;
79403;SDS011;68858;48.642;9.142;2023-08-07T10:43:26;1.40;;;1.20;;
79403;SDS011;68858;48.642;9.142;2023-08-07T10:45:53;2.67;;;1.50;;
79403;SDS011;68858;48.642;9.142;2023-08-07T10:48:18;3.03;;;1.50;;
79403;SDS011;68858;48.642;9.142;2023-08-07T10:50:51;1.30;;;1.20;;
79403;SDS011;68858;48.642;9.142;2023-08-07T10:53:31;2.30;;;1.33;;
79403;SDS011;68858;48.642;9.142;2023-08-07T10:55:58;1.20;;;1.10;;
79403;SDS011;68858;48.642;9.142;2023-08-07T10:58:29;1.57;;;1.23;;
79403;SDS011;68858;48.642;9.142;2023-08-07T11:01:16;1.20;;;1.10;;
79403;SDS011;68858;48.642;9.142;2023-08-07T11:03:59;1.50;;;1.37;;
79403;SDS011;68858;48.642;9.142;2023-08-07T11:06:29;2.57;;;1.50;;
79403;SDS011;68858;48.642;9.142;2023-08-07T11:09:16;1.27;;;1.17;;
79403;SDS011;68858;48.642;9.142;2023-08-07T11:11:42;1.40;;;1.20;;
79403;SDS011;68858;48.642;9.142;2023-08-07T11:14:09;1.40;;;1.30;;
79403;SDS011;68858;48.642;9.142;2023-08-07T11:16:35;1.43;;;1.23;;
79403;SDS011;68858;48.642;9.142;2023-08-07T11:19:01;1.30;;;1.20;;
79403;SDS011;68858;48.642;9.142;2023-08-07T11:21:28;1.50;;;1.40;;
79403;SDS011;68858;48.642;9.142;2023-08-07T11:23:58;2.33;;;1.40;;
79403;SDS011;68858;48.642;9.142;2023-08-07T11:26:24;1.63;;;1.30;;
79403;SDS011;68858;48.642;9.142;2023-08-07T11:28:51;1.60;;;1.40;;
79403;SDS011;68858;48.642;9.142;2023-08-07T11:31:17;1.50;;;1.40;;
79403;SDS011;68858;48.642;9.142;2023-08-07T11:33:43;2.97;;;1.40;;
79403;SDS011;68858;48.642;9.142;2023-08-07T11:36:11;1.80;;;1.40;;
79403;SDS011;68858;48.642;9.142;2023-08-07T11:38:39;2.13;;;1.40;;
79403;SDS011;68858;48.642;9.142;2023-08-07T11:41:06;2.30;;;1.30;;
79403;SDS011;68858;48.642;9.142;2023-08-07T11:43:33;1.40;;;1.20;;
79403;SDS011;68858;48.642;9.142;2023-08-07T11:46:03;2.17;;;1.40;;
79403;SDS011;68858;48.642;9.142;2023-08-07T11:48:31;1.40;;;1.30;;
79403;SDS011;68858;48.642;9.142;2023-08-07T11:50:58;1.33;;;1.23;;
79403;SDS011;68858;48.642;9.142;2023-08-07T11:53:24;2.00;;;1.50;;
79403;SDS011;68858;48.642;9.142;2023-08-07T11:58:20;2.50;;;1.37;;
79403;SDS011;68858;48.642;9.142;2023-08-07T12:00:46;1.90;;;1.37;;
79403;SDS011;68858;48.642;9.142;2023-08-07T12:03:27;2.03;;;1.50;;
79403;SDS011;68858;48.642;9.142;2023-08-07T12:05:57;3.23;;;2.60;;
79403;SDS011;68858;48.642;9.142;2023-08-07T12:08:23;2.73;;;2.53;;
79403;SDS011;68858;48.642;9.142;2023-08-07T12:10:50;1.63;;;1.40;;
79403;SDS011;68858;48.642;9.142;2023-08-07T12:13:16;2.47;;;1.57;;
79403;SDS011;68858;48.642;9.142;2023-08-07T12:15:45;1.43;;;1.20;;
79403;SDS011;68858;48.642;9.142;2023-08-07T12:18:10;2.13;;;1.50;;
79403;SDS011;68858;48.642;9.142;2023-08-07T12:20:38;4.17;;;2.83;;
79403;SDS011;68858;48.642;9.142;2023-08-07T12:23:03;6.03;;;5.43;;
79403;SDS011;68858;48.642;9.142;2023-08-07T12:25:28;8.43;;;7.73;;
79403;SDS011;68858;48.642;9.142;2023-08-07T12:27:53;14.67;;;11.63;;
79403;SDS011;68858;48.642;9.142;2023-08-07T12:30:19;3.27;;;2.00;;
79403;SDS011;68858;48.642;9.142;2023-08-07T12:32:44;2.97;;;2.10;;
79403;SDS011;68858;48.642;9.142;2023-08-07T12:35:10;2.80;;;2.13;;
79403;SDS011;68858;48.642;9.142;2023-08-07T12:37:36;2.67;;;1.90;;
79403;SDS011;68858;48.642;9.142;2023-08-07T12:40:01;2.10;;;1.90;;
79403;SDS011;68858;48.642;9.142;2023-08-07T12:42:27;1.80;;;1.70;;
79403;SDS011;68858;48.642;9.142;2023-08-07T12:44:53;2.20;;;1.80;;
79403;SDS011;68858;48.642;9.142;2023-08-07T12:47:18;3.20;;;1.80;;
79403;SDS011;68858;48.642;9.142;2023-08-07T12:49:43;2.10;;;1.90;;
79403;SDS011;68858;48.642;9.142;2023-08-07T12:52:11;1.60;;;1.50;;
79403;SDS011;68858;48.642;9.142;2023-08-07T12:54:36;2.37;;;1.83;;
79403;SDS011;68858;48.642;9.142;2023-08-07T12:57:02;1.90;;;1.70;;
79403;SDS011;68858;48.642;9.142;2023-08-07T12:59:27;3.07;;;1.70;;
79403;SDS011;68858;48.642;9.142;2023-08-07T13:01:52;2.90;;;1.97;;
79403;SDS011;68858;48.642;9.142;2023-08-07T13:04:18;2.30;;;1.70;;
79403;SDS011;68858;48.642;9.142;2023-08-07T13:06:43;3.67;;;1.80;;
79403;SDS011;68858;48.642;9.142;2023-08-07T13:09:09;2.93;;;1.60;;
79403;SDS011;68858;48.642;9.142;2023-08-07T13:11:35;2.53;;;1.80;;
79403;SDS011;68858;48.642;9.142;2023-08-07T13:14:00;2.07;;;1.60;;
79403;SDS011;68858;48.642;9.142;2023-08-07T13:16:26;2.67;;;2.00;;
79403;SDS011;68858;48.642;9.142;2023-08-07T13:18:51;1.60;;;1.50;;
79403;SDS011;68858;48.642;9.142;2023-08-07T13:21:17;2.77;;;1.90;;
79403;SDS011;68858;48.642;9.142;2023-08-07T13:23:42;2.57;;;1.83;;
79403;SDS011;68858;48.642;9.142;2023-08-07T13:26:07;3.13;;;1.70;;
79403;SDS011;68858;48.642;9.142;2023-08-07T13:28:33;1.80;;;1.60;;
79403;SDS011;68858;48.642;9.142;2023-08-07T13:30:58;1.60;;;1.50;;
79403;SDS011;68858;48.642;9.142;2023-08-07T13:33:23;2.33;;;1.63;;
79403;SDS011;68858;48.642;9.142;2023-08-07T13:35:49;2.93;;;1.50;;
79403;SDS011;68858;48.642;9.142;2023-08-07T13:38:14;1.77;;;1.37;;
79403;SDS011;68858;48.642;9.142;2023-08-07T13:40:41;2.40;;;1.40;;
79403;SDS011;68858;48.642;9.142;2023-08-07T13:43:08;1.87;;;1.50;;
79403;SDS011;68858;48.642;9.142;2023-08-07T13:45:34;3.20;;;1.70;;
79403;SDS011;68858;48.642;9.142;2023-08-07T13:48:00;1.80;;;1.50;;
79403;SDS011;68858;48.642;9.142;2023-08-07T13:50:25;1.50;;;1.40;;
79403;SDS011;68858;48.642;9.142;2023-08-07T13:52:50;1.70;;;1.60;;
79403;SDS011;68858;48.642;9.142;2023-08-07T13:55:16;1.43;;;1.33;;
79403;SDS011;68858;48.642;9.142;2023-08-07T13:57:42;1.40;;;1.30;;
79403;SDS011;68858;48.642;9.142;2023-08-07T14:00:07;1.40;;;1.30;;
79403;SDS011;68858;48.642;9.142;2023-08-07T14:02:33;1.60;;;1.30;;
79403;SDS011;68858;48.642;9.142;2023-08-07T14:05:00;1.80;;;1.70;;
79403;SDS011;68858;48.642;9.142;2023-08-07T14:07:25;3.90;;;1.63;;
79403;SDS011;68858;48.642;9.142;2023-08-07T14:09:50;1.50;;;1.40;;
79403;SDS011;68858;48.642;9.142;2023-08-07T14:12:16;1.47;;;1.37;;
79403;SDS011;68858;48.642;9.142;2023-08-07T14:14:41;2.03;;;1.60;;
79403;SDS011;68858;48.642;9.142;2023-08-07T14:17:06;1.50;;;1.40;;
79403;SDS011;68858;48.642;9.142;2023-08-07T14:19:32;1.63;;;1.25;;
79403;SDS011;68858;48.642;9.142;2023-08-07T14:21:57;2.75;;;1.48;;
79403;SDS011;68858;48.642;9.142;2023-08-07T14:24:23;1.70;;;1.60;;
79403;SDS011;68858;48.642;9.142;2023-08-07T14:26:48;1.50;;;1.40;;
79403;SDS011;68858;48.642;9.142;2023-08-07T14:29:13;2.00;;;1.33;;
79403;SDS011;68858;48.642;9.142;2023-08-07T14:31:39;1.50;;;1.40;;
79403;SDS011;68858;48.642;9.142;2023-08-07T14:34:05;1.40;;;1.30;;
79403;SDS011;68858;48.642;9.142;2023-08-07T14:36:30;1.70;;;1.40;;
79403;SDS011;68858;48.642;9.142;2023-08-07T14:38:55;2.27;;;1.23;;
79403;SDS011;68858;48.642;9.142;2023-08-07T14:41:21;2.00;;;1.50;;
79403;SDS011;68858;48.642;9.142;2023-08-07T14:43:46;1.70;;;1.60;;
79403;SDS011;68858;48.642;9.142;2023-08-07T14:46:12;1.83;;;1.50;;
79403;SDS011;68858;48.642;9.142;2023-08-07T14:48:38;1.40;;;1.30;;